createdAt,value
2018-06-05T00:01:52.406Z,20.92
2018-06-05T00:04:23.637Z,20.84
2018-06-05T00:06:54.396Z,20.88
2018-06-05T00:09:24.852Z,20.87
2018-06-05T00:11:55.775Z,20.91
2018-06-05T00:14:25.996Z,20.91
2018-06-05T00:16:57.543Z,20.78
2018-06-05T00:19:28.514Z,20.62
2018-06-05T00:22:00.552Z,20.43
2018-06-05T00:24:31.101Z,20.45
2018-06-05T00:27:01.816Z,20.53
2018-06-05T00:29:32.253Z,20.53
2018-06-05T00:32:02.733Z,20.65
2018-06-05T00:34:33.388Z,20.70
2018-06-05T00:37:03.958Z,20.54
2018-06-05T00:39:34.601Z,20.28
2018-06-05T00:42:06.315Z,20.10
2018-06-05T00:44:36.945Z,20.05
2018-06-05T00:47:07.543Z,20.06
2018-06-05T00:49:38.855Z,20.08
2018-06-05T00:52:10.888Z,20.02
2018-06-05T00:54:41.342Z,19.96
2018-06-05T00:57:12.308Z,20.00
2018-06-05T00:59:42.898Z,20.05
2018-06-05T01:02:13.353Z,20.07
2018-06-05T01:04:44.385Z,20.11
2018-06-05T01:07:15.369Z,20.14
2018-06-05T01:09:46.077Z,20.31
2018-06-05T01:12:16.693Z,20.44
2018-06-05T01:14:47.327Z,20.59
2018-06-05T01:17:19.049Z,20.65
2018-06-05T01:19:50.718Z,20.68
2018-06-05T01:22:21.318Z,20.70
2018-06-05T01:24:52.106Z,20.82
2018-06-05T01:27:23.680Z,20.87
2018-06-05T01:29:54.127Z,20.85
2018-06-05T01:32:25.933Z,20.78
2018-06-05T01:34:56.654Z,20.82
2018-06-05T01:37:27.243Z,20.89
2018-06-05T01:39:57.745Z,20.86
2018-06-05T01:42:28.664Z,20.73
2018-06-05T01:44:59.758Z,20.70
2018-06-05T01:47:30.332Z,20.44
2018-06-05T01:50:01.258Z,20.17
2018-06-05T01:52:32.972Z,20.06
2018-06-05T01:55:03.876Z,20.10
2018-06-05T01:57:35.522Z,19.98
2018-06-05T02:00:06.069Z,19.92
2018-06-05T02:02:36.541Z,19.85
2018-06-05T02:05:07.844Z,19.82
2018-06-05T02:07:38.469Z,19.77
2018-06-05T02:10:08.964Z,19.68
2018-06-05T02:12:39.585Z,19.70
2018-06-05T02:15:10.584Z,19.70
2018-06-05T02:17:41.068Z,19.66
2018-06-05T02:20:11.652Z,19.49
2018-06-05T02:22:42.104Z,19.37
2018-06-05T02:25:12.603Z,19.29
2018-06-05T02:27:43.358Z,19.26
2018-06-05T02:30:13.840Z,19.27
2018-06-05T02:32:44.298Z,19.27
2018-06-05T02:35:15.081Z,19.18
2018-06-05T02:37:46.769Z,19.20
2018-06-05T02:40:17.304Z,19.21
2018-06-05T02:42:47.805Z,19.27
2018-06-05T02:45:18.820Z,19.24
2018-06-05T02:47:50.180Z,19.32
2018-06-05T02:50:20.743Z,19.44
2018-06-05T02:52:51.220Z,19.64
2018-06-05T02:55:21.852Z,19.82
2018-06-05T02:57:52.769Z,19.92
2018-06-05T03:00:23.234Z,19.72
2018-06-05T03:02:53.741Z,19.38
2018-06-05T03:05:24.387Z,19.11
2018-06-05T03:07:54.892Z,19.00
2018-06-05T03:10:25.372Z,19.01
2018-06-05T03:12:56.487Z,19.11
2018-06-05T03:15:27.151Z,19.14
2018-06-05T03:17:58.832Z,19.19
2018-06-05T03:20:29.814Z,19.15
2018-06-05T03:23:01.277Z,19.29
2018-06-05T03:25:31.748Z,19.22
2018-06-05T03:28:02.247Z,19.15
2018-06-05T03:30:33.060Z,19.01
2018-06-05T03:33:04.034Z,18.84
2018-06-05T03:35:34.692Z,18.75
2018-06-05T03:38:05.604Z,18.72
2018-06-05T03:40:36.215Z,18.73
2018-06-05T03:43:07.091Z,18.69
2018-06-05T03:45:38.119Z,18.68
2018-06-05T03:48:08.615Z,18.76
2018-06-05T03:50:39.733Z,18.83
2018-06-05T03:53:10.492Z,18.91
2018-06-05T03:55:40.976Z,19.10
2018-06-05T03:58:11.401Z,19.17
2018-06-05T04:00:42.137Z,19.19
2018-06-05T04:03:12.878Z,19.16
2018-06-05T04:05:43.797Z,19.14
2018-06-05T04:08:14.309Z,19.07
2018-06-05T04:10:45.067Z,19.27
2018-06-05T04:13:15.582Z,19.22
2018-06-05T04:15:46.160Z,19.38
2018-06-05T04:18:16.598Z,19.70
2018-06-05T04:20:47.060Z,19.68
2018-06-05T04:23:17.300Z,19.71
2018-06-05T04:25:47.715Z,19.73
2018-06-05T04:28:19.708Z,19.88
2018-06-05T04:30:50.917Z,20.01
2018-06-05T04:33:21.519Z,19.91
2018-06-05T04:35:51.645Z,19.81
2018-06-05T04:38:22.047Z,19.75
2018-06-05T04:40:52.841Z,19.61
2018-06-05T04:43:23.874Z,19.67
2018-06-05T04:45:54.722Z,19.73
2018-06-05T04:48:25.379Z,20.01
2018-06-05T04:50:56.576Z,20.08
2018-06-05T04:53:27.349Z,20.18
2018-06-05T04:55:57.937Z,20.37
2018-06-05T04:58:28.580Z,20.71
2018-06-05T05:00:59.086Z,20.84
2018-06-05T05:03:29.769Z,20.81
2018-06-05T05:06:00.647Z,20.91
2018-06-05T05:08:31.288Z,21.03
2018-06-05T05:11:02.159Z,21.00
2018-06-05T05:13:32.716Z,21.18
2018-06-05T05:16:03.730Z,21.33
2018-06-05T05:18:34.114Z,21.64
2018-06-05T05:21:04.837Z,21.67
2018-06-05T05:23:35.377Z,21.84
2018-06-05T05:26:05.986Z,21.94
2018-06-05T05:28:36.750Z,22.04
2018-06-05T05:31:07.274Z,22.26
2018-06-05T05:33:39.013Z,22.22
2018-06-05T05:36:09.594Z,22.46
2018-06-05T05:38:40.518Z,22.36
2018-06-05T05:41:11.358Z,22.49
2018-06-05T05:43:41.803Z,22.41
2018-06-05T05:46:12.463Z,22.47
2018-06-05T05:48:43.292Z,22.37
2018-06-05T05:51:13.889Z,22.34
2018-06-05T05:53:45.947Z,22.50
2018-06-05T05:56:16.609Z,22.57
2018-06-05T05:58:47.125Z,22.58
2018-06-05T06:01:17.982Z,22.80
2018-06-05T06:03:48.694Z,22.78
2018-06-05T06:06:19.165Z,22.78
2018-06-05T06:08:50.643Z,22.68
2018-06-05T06:11:21.045Z,22.73
2018-06-05T06:13:51.665Z,22.77
2018-06-05T06:16:22.319Z,22.84
2018-06-05T06:18:53.244Z,22.94
2018-06-05T06:21:24.083Z,22.99
2018-06-05T06:23:54.970Z,23.00
2018-06-05T06:26:25.737Z,23.13
2018-06-05T06:28:56.496Z,23.29
2018-06-05T06:31:26.931Z,23.43
2018-06-05T06:33:57.211Z,23.54
2018-06-05T06:36:27.751Z,23.67
2018-06-05T06:38:58.652Z,23.84
2018-06-05T06:41:29.199Z,23.86
2018-06-05T06:43:59.850Z,23.93
2018-06-05T06:46:30.468Z,24.09
2018-06-05T06:49:00.978Z,23.98
2018-06-05T06:51:31.476Z,24.13
2018-06-05T06:54:02.221Z,24.30
2018-06-05T06:56:32.860Z,24.34
2018-06-05T06:59:04.543Z,24.45
2018-06-05T07:01:35.286Z,24.40
2018-06-05T07:04:06.362Z,24.48
2018-06-05T07:06:36.846Z,24.59
2018-06-05T07:09:09.248Z,24.56
2018-06-05T07:11:39.864Z,24.69
2018-06-05T07:14:10.789Z,24.76
2018-06-05T07:16:41.279Z,24.79
2018-06-05T07:19:11.551Z,24.82
2018-06-05T07:21:42.130Z,24.94
2018-06-05T07:24:12.801Z,25.04
2018-06-05T07:26:43.849Z,25.03
2018-06-05T07:29:14.535Z,25.00
2018-06-05T07:31:45.117Z,25.09
2018-06-05T07:34:15.609Z,25.12
2018-06-05T07:36:46.148Z,25.19
2018-06-05T07:39:16.975Z,25.25
2018-06-05T07:41:47.612Z,25.36
2018-06-05T07:44:18.240Z,25.40
2018-06-05T07:46:48.639Z,25.51
2018-06-05T07:49:19.539Z,25.51
2018-06-05T07:51:51.255Z,25.53
2018-06-05T07:54:22.005Z,25.61
2018-06-05T07:56:52.536Z,25.68
2018-06-05T07:59:24.526Z,25.69
2018-06-05T08:01:55.125Z,25.65
2018-06-05T08:04:27.009Z,25.70
2018-06-05T08:06:58.312Z,25.72
2018-06-05T08:09:29.375Z,25.78
2018-06-05T08:11:59.955Z,25.86
2018-06-05T08:14:30.839Z,25.85
2018-06-05T08:17:01.200Z,25.84
2018-06-05T08:19:32.168Z,25.98
2018-06-05T08:22:02.831Z,26.06
2018-06-05T08:24:34.390Z,26.13
2018-06-05T08:27:04.600Z,26.23
2018-06-05T08:29:34.645Z,26.27
2018-06-05T08:32:05.284Z,26.30
2018-06-05T08:34:35.893Z,26.32
2018-06-05T08:37:07.081Z,26.29
2018-06-05T08:39:37.660Z,26.22
2018-06-05T08:42:08.819Z,26.39
2018-06-05T08:44:39.077Z,26.53
2018-06-05T08:47:10.272Z,26.54
2018-06-05T08:49:40.498Z,26.66
2018-06-05T08:52:11.162Z,26.79
2018-06-05T08:57:12.069Z,26.79
2018-06-05T08:59:42.639Z,26.89
2018-06-05T09:02:13.378Z,26.98
2018-06-05T09:04:43.850Z,27.05
2018-06-05T09:07:14.483Z,27.10
2018-06-05T09:09:44.950Z,27.10
2018-06-05T09:12:15.440Z,27.16
2018-06-05T09:14:46.013Z,27.13
2018-06-05T09:17:17.640Z,27.25
2018-06-05T09:19:48.200Z,27.45
2018-06-05T09:22:19.959Z,27.53
2018-06-05T09:24:51.529Z,27.56
2018-06-05T09:27:22.088Z,27.65
2018-06-05T09:29:52.756Z,27.76
2018-06-05T09:32:23.556Z,27.88
2018-06-05T09:34:54.329Z,27.86
2018-06-05T09:37:25.643Z,27.88
2018-06-05T09:39:56.041Z,28.03
2018-06-05T09:42:26.613Z,28.18
2018-06-05T09:44:57.204Z,28.33
2018-06-05T09:47:28.517Z,28.36
2018-06-05T09:49:59.427Z,28.29
2018-06-05T09:52:30.485Z,28.30
2018-06-05T09:55:01.284Z,28.36
2018-06-05T09:57:33.129Z,28.27
2018-06-05T10:00:04.176Z,28.26
2018-06-05T10:02:34.757Z,28.45
2018-06-05T10:05:05.710Z,28.61
2018-06-05T10:07:36.017Z,28.65
2018-06-05T10:10:06.622Z,28.63
2018-06-05T10:12:37.883Z,28.66
2018-06-05T10:15:08.402Z,28.75
2018-06-05T10:17:38.952Z,28.88
2018-06-05T10:20:09.548Z,29.00
2018-06-05T10:22:40.454Z,28.96
2018-06-05T10:25:11.056Z,29.01
2018-06-05T10:27:41.794Z,28.97
2018-06-05T10:30:12.342Z,28.99
2018-06-05T10:32:44.055Z,29.06
2018-06-05T10:35:14.593Z,29.20
2018-06-05T10:37:45.253Z,29.33
2018-06-05T10:40:16.309Z,29.27
2018-06-05T10:42:46.799Z,29.32
2018-06-05T10:45:17.357Z,29.48
2018-06-05T10:47:48.239Z,29.57
2018-06-05T10:50:18.804Z,29.61
2018-06-05T10:52:49.059Z,29.77
2018-06-05T10:55:19.618Z,29.94
2018-06-05T10:57:51.043Z,30.04
2018-06-05T11:00:21.628Z,30.04
2018-06-05T11:02:52.656Z,30.04
2018-06-05T11:05:23.153Z,30.05
2018-06-05T11:07:53.793Z,30.17
2018-06-05T11:10:24.748Z,30.24
2018-06-05T11:12:55.595Z,30.26
2018-06-05T11:15:26.164Z,30.39
2018-06-05T11:17:56.704Z,30.46
2018-06-05T11:20:27.444Z,30.55
2018-06-05T11:22:58.179Z,30.58
2018-06-05T11:25:28.774Z,30.74
2018-06-05T11:27:59.496Z,30.79
2018-06-05T11:30:30.118Z,30.88
2018-06-05T11:33:00.845Z,30.95
2018-06-05T11:35:31.461Z,31.01
2018-06-05T11:38:02.062Z,31.15
2018-06-05T11:40:32.576Z,31.18
2018-06-05T11:43:02.785Z,31.31
2018-06-05T11:45:33.170Z,31.33
2018-06-05T11:48:04.844Z,31.31
2018-06-05T11:50:35.857Z,31.27
2018-06-05T11:53:06.655Z,31.28
2018-06-05T11:55:37.533Z,31.37
2018-06-05T11:58:08.298Z,31.50
2018-06-05T12:00:38.945Z,31.64
2018-06-05T12:03:09.147Z,31.59
2018-06-05T12:05:39.505Z,31.49
2018-06-05T12:08:11.137Z,31.46
2018-06-05T12:10:41.789Z,31.63
2018-06-05T12:13:12.518Z,31.73
2018-06-05T12:15:43.128Z,31.89
2018-06-05T12:18:13.800Z,31.94
2018-06-05T12:20:44.537Z,32.06
2018-06-05T12:23:15.237Z,32.10
2018-06-05T12:25:46.101Z,32.06
2018-06-05T12:28:17.332Z,32.08
2018-06-05T12:30:47.859Z,32.19
2018-06-05T12:33:18.741Z,32.34
2018-06-05T12:35:49.429Z,32.36
2018-06-05T12:38:21.130Z,32.28
2018-06-05T12:40:51.919Z,32.33
2018-06-05T12:43:22.375Z,32.42
2018-06-05T12:45:52.973Z,32.52
2018-06-05T12:48:23.687Z,32.60
2018-06-05T12:50:54.445Z,32.72
2018-06-05T12:53:25.354Z,32.88
2018-06-05T12:55:55.873Z,33.02
2018-06-05T12:58:26.404Z,33.05
2018-06-05T13:00:56.529Z,33.13
2018-06-05T13:03:26.578Z,33.26
2018-06-05T13:05:57.260Z,33.32
2018-06-05T13:08:27.917Z,33.01
2018-06-05T13:10:58.439Z,32.77
2018-06-05T13:13:29.280Z,32.60
2018-06-05T13:15:59.637Z,32.28
2018-06-05T13:18:30.033Z,32.09
2018-06-05T13:21:00.881Z,32.17
2018-06-05T13:23:31.531Z,32.50
2018-06-05T13:26:02.246Z,32.72
2018-06-05T13:28:33.293Z,32.85
2018-06-05T13:31:04.327Z,32.92
2018-06-05T13:33:34.831Z,33.11
2018-06-05T13:36:05.426Z,33.12
2018-06-05T13:38:36.288Z,33.10
2018-06-05T13:41:06.820Z,32.85
2018-06-05T13:43:37.345Z,32.78
2018-06-05T13:46:07.883Z,32.56
2018-06-05T13:48:38.645Z,32.35
2018-06-05T13:51:09.515Z,32.05
2018-06-05T13:53:40.024Z,31.77
2018-06-05T13:56:11.293Z,31.77
2018-06-05T13:58:41.775Z,31.69
2018-06-05T14:01:12.768Z,31.96
2018-06-05T14:03:43.292Z,32.19
2018-06-05T14:06:13.935Z,32.08
2018-06-05T14:08:44.452Z,31.94
2018-06-05T14:11:15.680Z,31.87
2018-06-05T14:13:46.824Z,31.70
2018-06-05T14:16:17.957Z,31.48
2018-06-05T14:18:49.029Z,31.47
2018-06-05T14:21:19.480Z,31.56
2018-06-05T14:23:50.754Z,31.59
2018-06-05T14:26:21.265Z,31.65
2018-06-05T14:28:52.104Z,32.00
2018-06-05T14:31:22.655Z,32.08
2018-06-05T14:33:53.772Z,32.31
2018-06-05T14:36:23.910Z,32.36
2018-06-05T14:38:54.440Z,32.22
2018-06-05T14:41:25.037Z,32.51
2018-06-05T14:43:55.713Z,32.68
2018-06-05T14:46:26.236Z,32.84
2018-06-05T14:48:57.848Z,33.00
2018-06-05T14:51:28.717Z,33.07
2018-06-05T14:53:59.273Z,33.05
2018-06-05T14:56:29.866Z,33.26
2018-06-05T14:59:00.483Z,33.52
2018-06-05T15:01:31.060Z,33.76
2018-06-05T15:04:01.687Z,33.89
2018-06-05T15:06:32.281Z,33.95
2018-06-05T15:09:03.018Z,33.72
2018-06-05T15:11:33.939Z,33.58
2018-06-05T15:14:04.488Z,33.42
2018-06-05T15:16:35.095Z,33.49
2018-06-05T15:19:05.892Z,33.18
2018-06-05T15:21:36.580Z,33.10
2018-06-05T15:24:07.325Z,33.33
2018-06-05T15:26:37.836Z,33.30
2018-06-05T15:29:08.461Z,33.52
2018-06-05T15:31:38.991Z,33.52
2018-06-05T15:34:09.565Z,33.69
2018-06-05T15:36:40.055Z,33.74
2018-06-05T15:39:10.911Z,33.84
2018-06-05T15:41:41.686Z,33.81
2018-06-05T15:44:12.344Z,33.67
2018-06-05T15:46:42.868Z,33.49
2018-06-05T15:49:13.417Z,33.32
2018-06-05T15:51:43.994Z,33.08
2018-06-05T15:54:14.564Z,33.01
2018-06-05T15:56:45.022Z,32.93
2018-06-05T15:59:15.601Z,32.75
2018-06-05T16:01:46.370Z,32.71
2018-06-05T16:04:17.227Z,32.78
2018-06-05T16:06:47.791Z,32.51
2018-06-05T16:09:18.680Z,32.30
2018-06-05T16:11:49.145Z,32.15
2018-06-05T16:14:19.880Z,32.08
2018-06-05T16:16:50.545Z,31.89
2018-06-05T16:19:21.199Z,32.10
2018-06-05T16:21:52.489Z,31.95
2018-06-05T16:24:23.122Z,31.73
2018-06-05T16:26:53.661Z,31.51
2018-06-05T16:29:25.488Z,31.30
2018-06-05T16:31:56.163Z,31.14
2018-06-05T16:34:26.677Z,30.97
2018-06-05T16:36:57.857Z,31.01
2018-06-05T16:39:29.105Z,31.38
2018-06-05T16:41:59.667Z,31.68
2018-06-05T16:44:30.392Z,31.85
2018-06-05T16:47:01.253Z,32.02
2018-06-05T16:49:32.980Z,32.36
2018-06-05T16:52:03.516Z,32.64
2018-06-05T16:54:34.032Z,32.78
2018-06-05T16:57:04.682Z,32.89
2018-06-05T16:59:35.694Z,32.99
2018-06-05T17:02:06.176Z,33.12
2018-06-05T17:04:37.806Z,33.47
2018-06-05T17:07:08.354Z,33.84
2018-06-05T17:09:38.938Z,35.52
2018-06-05T17:12:09.462Z,36.89
2018-06-05T17:14:40.021Z,38.37
2018-06-05T17:17:10.589Z,39.46
2018-06-05T17:19:41.734Z,40.36
2018-06-05T17:22:12.253Z,40.70
2018-06-05T17:24:42.876Z,40.45
2018-06-05T17:27:13.214Z,40.56
2018-06-05T17:29:43.807Z,40.44
2018-06-05T17:32:14.324Z,39.40
2018-06-05T17:34:44.839Z,37.82
2018-06-05T17:37:15.358Z,36.85
2018-06-05T17:39:46.111Z,36.03
2018-06-05T17:42:16.781Z,35.13
2018-06-05T17:44:46.977Z,34.26
2018-06-05T17:47:17.790Z,33.79
2018-06-05T17:49:48.668Z,33.36
2018-06-05T17:52:18.911Z,32.73
2018-06-05T17:54:50.342Z,32.42
2018-06-05T17:57:20.927Z,32.22
2018-06-05T17:59:52.500Z,32.12
2018-06-05T18:02:23.320Z,31.96
2018-06-05T18:04:54.521Z,31.83
2018-06-05T18:07:25.389Z,31.59
2018-06-05T18:09:55.952Z,31.50
2018-06-05T18:12:27.181Z,31.44
2018-06-05T18:14:57.843Z,31.23
2018-06-05T18:17:28.403Z,31.12
2018-06-05T18:19:59.304Z,31.03
2018-06-05T18:22:29.850Z,31.06
2018-06-05T18:25:00.380Z,31.01
2018-06-05T18:27:31.203Z,30.99
2018-06-05T18:30:02.205Z,30.87
2018-06-05T18:32:32.908Z,30.72
2018-06-05T18:35:05.220Z,30.79
2018-06-05T18:37:35.651Z,30.78
2018-06-05T18:40:07.270Z,30.79
2018-06-05T18:42:38.337Z,31.03
2018-06-05T18:45:08.959Z,30.96
2018-06-05T18:47:39.465Z,30.77
2018-06-05T18:50:10.404Z,30.43
2018-06-05T18:52:41.299Z,30.13
2018-06-05T18:55:12.806Z,29.89
2018-06-05T18:57:43.387Z,29.53
2018-06-05T19:00:13.978Z,29.24
2018-06-05T19:02:44.585Z,29.04
2018-06-05T19:05:15.161Z,28.91
2018-06-05T19:07:45.705Z,28.79
2018-06-05T19:10:16.936Z,28.60
2018-06-05T19:12:47.394Z,28.49
2018-06-05T19:15:18.236Z,28.39
2018-06-05T19:17:49.033Z,28.19
2018-06-05T19:20:19.883Z,28.17
2018-06-05T19:22:50.549Z,28.01
2018-06-05T19:25:21.070Z,27.84
2018-06-05T19:27:52.667Z,27.73
2018-06-05T19:30:23.241Z,27.65
2018-06-05T19:32:53.760Z,27.55
2018-06-05T19:35:24.314Z,27.49
2018-06-05T19:37:55.077Z,27.60
2018-06-05T19:40:26.284Z,27.51
2018-06-05T19:42:56.841Z,27.38
2018-06-05T19:45:27.426Z,27.40
2018-06-05T19:47:57.957Z,27.39
2018-06-05T19:50:28.867Z,27.26
2018-06-05T19:52:59.373Z,27.25
2018-06-05T19:55:29.967Z,27.06
2018-06-05T19:58:00.789Z,26.94
2018-06-05T20:00:31.728Z,26.90
2018-06-05T20:03:02.202Z,26.87
2018-06-05T20:05:33.227Z,26.84
2018-06-05T20:08:03.697Z,26.69
2018-06-05T20:10:35.268Z,26.51
2018-06-05T20:13:06.224Z,26.45
2018-06-05T20:15:36.732Z,26.49
2018-06-05T20:18:07.213Z,26.47
2018-06-05T20:20:38.818Z,26.34
2018-06-05T20:23:09.348Z,26.23
2018-06-05T20:25:39.876Z,26.12
2018-06-05T20:28:10.433Z,26.14
2018-06-05T20:30:40.962Z,26.10
2018-06-05T20:33:11.422Z,26.10
2018-06-05T20:35:41.973Z,26.09
2018-06-05T20:38:12.681Z,26.13
2018-06-05T20:40:43.715Z,26.15
2018-06-05T20:43:14.423Z,26.14
2018-06-05T20:45:45.038Z,26.13
2018-06-05T20:48:15.868Z,26.32
2018-06-05T20:50:46.512Z,26.45
2018-06-05T20:53:17.359Z,26.54
2018-06-05T20:55:48.335Z,26.62
2018-06-05T20:58:18.873Z,26.62
2018-06-05T21:00:51.010Z,26.68
2018-06-05T21:03:22.351Z,26.64
2018-06-05T21:05:53.507Z,26.28
2018-06-05T21:08:24.289Z,26.29
2018-06-05T21:10:54.828Z,26.30
2018-06-05T21:13:25.265Z,26.34
2018-06-05T21:15:57.186Z,26.06
2018-06-05T21:18:27.645Z,25.94
2018-06-05T21:20:58.513Z,25.76
2018-06-05T21:23:29.011Z,25.67
2018-06-05T21:25:59.517Z,25.69
2018-06-05T21:28:29.995Z,25.68
2018-06-05T21:31:00.506Z,25.55
2018-06-05T21:33:31.019Z,25.56
2018-06-05T21:36:01.515Z,25.54
2018-06-05T21:38:31.986Z,25.43
2018-06-05T21:41:02.543Z,25.46
2018-06-05T21:43:33.039Z,25.47
2018-06-05T21:46:03.665Z,25.55
2018-06-05T21:48:34.809Z,25.37
2018-06-05T21:51:05.401Z,25.31
2018-06-05T21:53:35.837Z,25.20
2018-06-05T21:56:06.524Z,25.03
2018-06-05T21:58:37.222Z,24.91
2018-06-05T22:01:07.764Z,24.63
2018-06-05T22:03:38.269Z,24.57
2018-06-05T22:06:08.746Z,24.50
2018-06-05T22:08:39.781Z,24.51
2018-06-05T22:11:10.286Z,24.42
2018-06-05T22:13:40.814Z,24.25
2018-06-05T22:16:11.645Z,24.18
2018-06-05T22:18:42.609Z,24.18
2018-06-05T22:21:13.200Z,24.11
2018-06-05T22:23:43.889Z,24.09
2018-06-05T22:26:14.602Z,23.96
2018-06-05T22:28:45.074Z,23.99
2018-06-05T22:31:15.572Z,23.96
2018-06-05T22:33:46.266Z,23.85
2018-06-05T22:36:17.461Z,23.82
2018-06-05T22:38:47.996Z,23.71
2018-06-05T22:41:18.448Z,23.59
2018-06-05T22:43:49.123Z,23.48
2018-06-05T22:46:19.627Z,23.43
2018-06-05T22:48:50.099Z,23.46
2018-06-05T22:51:20.583Z,23.49
2018-06-05T22:53:50.839Z,23.45
2018-06-05T22:56:21.413Z,23.33
2018-06-05T22:58:51.945Z,23.28
2018-06-05T23:01:22.660Z,23.35
2018-06-05T23:03:53.123Z,23.39
2018-06-05T23:06:23.335Z,23.29
2018-06-05T23:08:53.972Z,23.23
2018-06-05T23:11:24.531Z,23.30
2018-06-05T23:13:54.986Z,23.31
2018-06-05T23:16:26.033Z,23.33
2018-06-05T23:18:56.569Z,23.26
2018-06-05T23:21:26.690Z,23.16
2018-06-05T23:23:57.576Z,23.14
2018-06-05T23:26:28.075Z,23.15
2018-06-05T23:28:58.938Z,22.99
2018-06-05T23:31:29.661Z,22.96
2018-06-05T23:34:00.688Z,22.89
2018-06-05T23:36:31.174Z,22.86
2018-06-05T23:39:02.276Z,22.83
2018-06-05T23:41:32.750Z,22.82
2018-06-05T23:44:03.253Z,22.72
2018-06-05T23:46:33.718Z,22.69
2018-06-05T23:49:04.296Z,22.68
2018-06-05T23:51:35.890Z,22.61
2018-06-05T23:54:06.118Z,22.57
2018-06-05T23:56:36.541Z,22.54
2018-06-05T23:59:07.097Z,22.58
